Time;durP1;ratioP1;P1;durP2;ratioP2;P2;SDS_P1;SDS_P2;PMS_P1;PMS_P2;Temp;Humidity;BMP_temperature;BMP_pressure;BME280_temperature;BME280_humidity;BME280_pressure;Samples;Min_cycle;Max_cycle;Signal;HPM_P1;HPM_P2
2022/05/01 00:00:48;;;;;;;7.40;5.60;;;14.40;82.00;;;;;;5090397;28;20367;-61
2022/05/01 00:03:30;;;;;;;7.38;5.53;;;14.40;82.00;;;;;;5059253;28;20498;-63
2022/05/01 00:06:00;;;;;;;7.95;5.50;;;14.30;82.00;;;;;;5072834;28;20028;-62
2022/05/01 00:08:26;;;;;;;8.57;5.95;;;14.30;82.00;;;;;;5077414;28;20036;-64
2022/05/01 00:10:52;;;;;;;7.65;5.90;;;14.30;82.00;;;;;;5090197;28;20103;-61
2022/05/01 00:13:17;;;;;;;6.35;5.68;;;14.30;82.10;;;;;;5090177;28;20024;-63
2022/05/01 00:15:43;;;;;;;8.40;6.18;;;14.30;82.10;;;;;;5094481;28;20104;-62
2022/05/01 00:18:08;;;;;;;7.28;5.82;;;14.30;82.20;;;;;;5090305;28;20111;-63
2022/05/01 00:20:34;;;;;;;6.00;5.40;;;14.30;82.20;;;;;;5075146;28;20507;-63
2022/05/01 00:23:00;;;;;;;7.15;5.90;;;14.30;82.20;;;;;;5074397;28;20475;-63
2022/05/01 00:25:25;;;;;;;9.30;5.93;;;14.30;82.20;;;;;;5089241;28;20365;-62
2022/05/01 00:27:51;;;;;;;10.30;6.15;;;14.20;82.20;;;;;;5056674;28;20027;-62
2022/05/01 00:30:16;;;;;;;9.93;5.88;;;14.20;82.20;;;;;;5074727;28;20093;-63
2022/05/01 00:38:10;;;;;;;9.13;5.93;;;14.20;82.40;;;;;;5076978;28;20108;-61
2022/05/01 00:40:36;;;;;;;9.52;5.90;;;14.20;82.40;;;;;;5089229;28;20523;-62
2022/05/01 00:43:02;;;;;;;7.65;6.13;;;14.20;82.40;;;;;;5073294;28;20520;-62
2022/05/01 00:45:29;;;;;;;7.55;5.95;;;14.20;82.60;;;;;;5073798;28;20111;-63
2022/05/01 00:47:54;;;;;;;7.32;6.00;;;14.20;82.60;;;;;;5089325;28;20023;-63
2022/05/01 00:50:20;;;;;;;8.10;5.82;;;14.10;82.50;;;;;;5057664;28;20038;-63
2022/05/01 00:52:45;;;;;;;9.90;6.03;;;14.10;82.50;;;;;;5087975;28;20056;-61
2022/05/01 00:55:11;;;;;;;7.97;6.25;;;14.10;82.60;;;;;;5050560;28;20074;-63
2022/05/01 00:57:37;;;;;;;9.25;6.30;;;14.10;82.50;;;;;;5055026;28;20024;-62
2022/05/01 01:00:04;;;;;;;7.43;6.20;;;14.10;82.70;;;;;;5088838;28;20103;-63
2022/05/01 01:02:31;;;;;;;7.43;5.88;;;14.10;82.80;;;;;;5071772;28;20044;-63
2022/05/01 01:04:56;;;;;;;9.77;6.32;;;14.10;82.70;;;;;;5068187;28;20020;-62
2022/05/01 01:07:22;;;;;;;7.70;6.03;;;14.10;82.70;;;;;;5085280;28;20058;-63
2022/05/01 01:09:47;;;;;;;7.95;6.40;;;14.10;82.60;;;;;;5072096;28;20314;-62
2022/05/01 01:15:09;;;;;;;8.25;6.28;;;14.10;82.60;;;;;;5073310;28;20141;-62
2022/05/01 01:17:40;;;;;;;7.88;6.50;;;14.00;82.60;;;;;;5071374;28;20020;-63
2022/05/01 01:20:11;;;;;;;9.20;6.45;;;14.00;82.70;;;;;;5071885;28;20024;-62
2022/05/01 01:22:40;;;;;;;10.23;6.25;;;14.00;82.70;;;;;;5086236;28;20020;-62
2022/05/01 01:25:09;;;;;;;8.23;6.80;;;14.00;83.40;;;;;;5054247;28;20105;-63
2022/05/01 01:27:35;;;;;;;9.23;7.13;;;14.00;82.80;;;;;;5072911;28;20487;-63
2022/05/01 01:32:45;;;;;;;10.68;7.43;;;13.90;83.00;;;;;;5069868;28;20035;-62
2022/05/01 01:35:11;;;;;;;9.27;7.10;;;13.90;83.00;;;;;;5075120;28;20020;-62
2022/05/01 01:37:37;;;;;;;8.00;7.20;;;13.90;83.00;;;;;;5073054;28;20490;-62
2022/05/01 01:40:02;;;;;;;8.35;7.32;;;13.90;83.00;;;;;;5088258;28;20028;-62
2022/05/01 01:42:29;;;;;;;7.90;7.10;;;13.90;83.10;;;;;;5054962;28;20020;-63
2022/05/01 01:44:55;;;;;;;8.73;7.40;;;13.90;82.90;;;;;;5058205;28;20084;-62
2022/05/01 01:47:20;;;;;;;8.18;6.90;;;13.90;82.80;;;;;;5072366;28;20055;-61
2022/05/01 01:49:46;;;;;;;8.70;6.53;;;13.80;82.80;;;;;;5074704;28;20081;-62
2022/05/01 01:52:11;;;;;;;7.85;6.80;;;13.80;82.90;;;;;;5071080;28;20059;-62
2022/05/01 01:54:37;;;;;;;8.23;7.07;;;13.80;82.90;;;;;;5075124;28;20059;-62
2022/05/01 01:57:03;;;;;;;7.60;6.82;;;13.80;83.10;;;;;;5071018;28;20024;-62
2022/05/01 01:59:29;;;;;;;10.70;7.60;;;13.80;83.10;;;;;;5069074;28;20531;-63
2022/05/01 02:01:55;;;;;;;8.68;6.80;;;13.70;83.20;;;;;;5060545;28;20040;-62
2022/05/01 02:04:21;;;;;;;8.35;6.95;;;13.70;83.30;;;;;;5049808;28;20033;-62
2022/05/01 02:06:46;;;;;;;8.18;7.38;;;13.70;83.20;;;;;;5078663;28;20495;-62
2022/05/01 02:09:13;;;;;;;12.00;7.28;;;13.70;83.10;;;;;;5058205;28;20051;-62
2022/05/01 02:11:39;;;;;;;9.45;7.22;;;13.70;83.10;;;;;;5061480;28;20030;-61
2022/05/01 02:14:05;;;;;;;8.20;7.38;;;13.70;83.20;;;;;;5082185;28;20036;-63
2022/05/01 02:16:30;;;;;;;9.70;6.80;;;13.70;83.20;;;;;;5072275;28;20088;-62
2022/05/01 02:18:56;;;;;;;9.85;7.00;;;13.70;83.20;;;;;;5075082;28;20033;-62
2022/05/01 02:21:34;;;;;;;8.70;6.95;;;13.70;83.20;;;;;;5058129;28;20051;-62
2022/05/01 02:23:59;;;;;;;8.93;7.50;;;13.70;83.30;;;;;;5056710;28;20029;-62
2022/05/01 02:26:25;;;;;;;9.80;7.68;;;13.70;83.40;;;;;;5035737;28;20024;-62
2022/05/01 02:28:50;;;;;;;8.27;7.38;;;13.70;83.40;;;;;;5074303;28;20029;-63
2022/05/01 02:31:16;;;;;;;7.68;6.90;;;13.60;83.40;;;;;;5076953;28;20128;-63
2022/05/01 02:33:43;;;;;;;11.07;7.93;;;13.60;83.40;;;;;;5059420;28;20027;-62
2022/05/01 02:36:09;;;;;;;8.63;7.32;;;13.60;83.40;;;;;;5086408;28;20439;-63
2022/05/01 02:38:34;;;;;;;10.13;7.50;;;13.60;83.50;;;;;;5074521;28;20052;-62
2022/05/01 02:41:01;;;;;;;9.13;7.43;;;13.60;83.50;;;;;;5057667;28;20119;-63
2022/05/01 02:43:27;;;;;;;8.77;7.40;;;13.60;83.60;;;;;;5042137;28;20230;-62
2022/05/01 02:45:52;;;;;;;8.32;7.00;;;13.50;83.50;;;;;;5082593;28;20024;-62
2022/05/01 02:48:18;;;;;;;8.82;7.65;;;13.60;83.60;;;;;;5059219;28;20028;-63
2022/05/01 02:50:43;;;;;;;8.23;6.75;;;13.60;83.50;;;;;;5073610;28;20036;-63
2022/05/01 02:53:09;;;;;;;9.45;7.28;;;13.60;84.20;;;;;;5078637;28;20048;-63
2022/05/01 02:55:34;;;;;;;7.63;6.90;;;13.50;83.50;;;;;;5078691;28;20025;-62
2022/05/01 02:58:00;;;;;;;7.68;6.90;;;13.50;83.40;;;;;;5066036;28;20384;-62
2022/05/01 03:00:26;;;;;;;8.02;6.65;;;13.60;83.50;;;;;;5055150;28;20431;-63
2022/05/01 03:02:55;;;;;;;7.70;6.47;;;13.50;83.40;;;;;;5079256;28;20044;-61
2022/05/01 03:05:20;;;;;;;7.65;6.63;;;13.50;83.40;;;;;;5070537;28;20044;-62
2022/05/01 03:07:48;;;;;;;7.30;6.60;;;13.50;83.50;;;;;;5057556;28;20032;-62
2022/05/01 03:10:13;;;;;;;8.30;7.00;;;13.50;83.40;;;;;;5082108;28;20123;-62
2022/05/01 03:12:39;;;;;;;7.28;6.57;;;13.50;83.40;;;;;;5073606;28;20104;-62
2022/05/01 03:15:06;;;;;;;7.50;6.60;;;13.50;83.40;;;;;;5071660;28;20044;-66
2022/05/01 03:22:10;;;;;;;8.35;6.78;;;13.50;83.30;;;;;;5068129;28;20033;-63
2022/05/01 03:23:01;;;;;;;6.82;6.20;;;13.50;83.40;;;;;;5072739;28;20170;-62
2022/05/01 03:25:26;;;;;;;8.93;6.38;;;13.50;83.40;;;;;;5047742;28;20515;-62
2022/05/01 03:27:53;;;;;;;8.60;6.75;;;13.50;83.30;;;;;;5059054;28;20416;-63
2022/05/01 03:30:19;;;;;;;8.40;6.70;;;13.40;83.30;;;;;;5057514;28;20021;-63
2022/05/01 03:32:45;;;;;;;7.40;6.70;;;13.40;83.40;;;;;;5080794;28;20017;-62
2022/05/01 03:35:10;;;;;;;7.15;6.18;;;13.40;83.40;;;;;;5072934;28;20023;-62
2022/05/01 03:37:36;;;;;;;7.05;6.40;;;13.40;83.40;;;;;;5049250;28;20052;-63
2022/05/01 03:40:02;;;;;;;7.60;6.65;;;13.40;83.40;;;;;;5075779;28;20568;-62
2022/05/01 03:42:28;;;;;;;6.78;5.95;;;13.40;83.40;;;;;;5079415;28;20456;-62
2022/05/01 03:44:54;;;;;;;7.45;6.65;;;13.40;83.40;;;;;;5075161;28;20024;-62
2022/05/01 03:47:20;;;;;;;6.95;6.15;;;13.40;83.30;;;;;;5041374;28;20033;-62
2022/05/01 03:49:45;;;;;;;7.43;6.18;;;13.40;83.30;;;;;;5077025;28;20039;-61
2022/05/01 03:52:11;;;;;;;6.68;6.07;;;13.40;83.40;;;;;;5079592;28;20055;-62
2022/05/01 03:54:36;;;;;;;7.10;6.40;;;13.40;83.40;;;;;;5069374;28;20507;-62
2022/05/01 03:57:02;;;;;;;7.68;6.25;;;13.40;83.50;;;;;;5061809;28;20036;-62
2022/05/01 03:59:29;;;;;;;7.05;6.15;;;13.40;83.50;;;;;;5057737;28;20056;-62
2022/05/01 04:01:55;;;;;;;6.88;6.07;;;13.40;83.40;;;;;;5040979;28;20112;-63
2022/05/01 04:04:20;;;;;;;7.65;6.10;;;13.30;83.40;;;;;;5070433;28;20120;-62
2022/05/01 04:06:46;;;;;;;6.95;6.30;;;13.40;83.50;;;;;;5053758;28;20024;-63
2022/05/01 04:09:12;;;;;;;6.22;5.63;;;13.40;83.50;;;;;;5053887;28;20033;-62
2022/05/01 04:11:38;;;;;;;7.15;5.90;;;13.30;83.40;;;;;;5074041;28;20028;-63
2022/05/01 04:14:03;;;;;;;6.97;5.63;;;13.40;83.40;;;;;;5043397;28;20068;-63
2022/05/01 04:16:29;;;;;;;6.38;5.88;;;13.40;83.40;;;;;;5049925;28;20024;-63
2022/05/01 04:18:54;;;;;;;6.35;5.38;;;13.30;83.40;;;;;;5060785;28;20020;-63
2022/05/01 04:21:20;;;;;;;8.07;5.85;;;13.30;83.40;;;;;;5072560;28;20310;-61
2022/05/01 04:23:46;;;;;;;6.55;5.85;;;13.30;83.50;;;;;;5074808;28;20023;-63
2022/05/01 04:26:12;;;;;;;6.32;5.72;;;13.30;83.50;;;;;;5059774;28;20028;-63
2022/05/01 04:28:37;;;;;;;6.82;5.78;;;13.40;83.50;;;;;;5050879;28;20032;-61
2022/05/01 04:31:03;;;;;;;8.57;6.05;;;13.30;83.40;;;;;;5062861;28;20046;-62
2022/05/01 04:33:28;;;;;;;6.07;5.53;;;13.30;83.50;;;;;;5075429;28;20031;-63
2022/05/01 04:35:54;;;;;;;5.97;5.47;;;13.30;83.50;;;;;;5082220;28;20028;-63
2022/05/01 04:38:21;;;;;;;5.82;5.32;;;13.30;83.50;;;;;;5058550;28;20378;-63
2022/05/01 04:40:52;;;;;;;6.72;5.70;;;13.30;83.50;;;;;;5074281;28;20020;-62
2022/05/01 04:43:26;;;;;;;5.55;5.05;;;13.30;83.40;;;;;;5059125;28;20023;-63
2022/05/01 04:45:53;;;;;;;6.22;5.63;;;13.30;83.40;;;;;;5043803;28;20494;-63
2022/05/01 04:48:19;;;;;;;6.07;5.47;;;13.20;84.10;;;;;;5041792;28;20032;-61
2022/05/01 04:50:45;;;;;;;6.30;5.78;;;13.30;83.50;;;;;;5041324;28;20084;-63
2022/05/01 04:53:11;;;;;;;6.13;5.57;;;13.30;83.50;;;;;;5058277;28;20067;-63
2022/05/01 04:55:42;;;;;;;6.05;5.45;;;13.30;83.40;;;;;;5059008;28;20031;-63
2022/05/01 04:58:08;;;;;;;9.05;5.60;;;13.20;83.40;;;;;;5040818;28;20020;-62
2022/05/01 05:00:33;;;;;;;6.03;5.47;;;13.30;83.50;;;;;;5035471;28;20035;-63
2022/05/01 05:02:59;;;;;;;6.88;5.93;;;13.30;83.50;;;;;;5064266;28;20111;-63
2022/05/01 05:05:27;;;;;;;6.60;5.90;;;13.30;83.50;;;;;;5082725;28;20024;-62
2022/05/01 05:07:52;;;;;;;5.55;5.05;;;13.30;83.40;;;;;;5056337;28;20070;-62
2022/05/01 05:10:18;;;;;;;5.60;5.05;;;13.20;83.50;;;;;;5058117;28;20036;-62
2022/05/01 05:12:44;;;;;;;6.18;5.57;;;13.20;83.50;;;;;;5049182;28;20150;-63
2022/05/01 05:15:10;;;;;;;4.85;4.35;;;13.20;83.60;;;;;;5057283;28;20430;-63
2022/05/01 05:17:37;;;;;;;5.65;5.15;;;13.20;83.70;;;;;;5056594;28;20020;-62
2022/05/01 05:20:03;;;;;;;6.32;5.75;;;13.20;83.60;;;;;;5078378;28;20078;-63
2022/05/01 05:22:29;;;;;;;5.75;5.13;;;13.20;83.60;;;;;;5039588;28;20031;-62
2022/05/01 05:24:54;;;;;;;5.70;5.20;;;13.20;83.60;;;;;;5085139;28;20044;-63
2022/05/01 05:27:21;;;;;;;7.00;5.28;;;13.20;83.50;;;;;;5056175;28;20456;-62
2022/05/01 05:29:47;;;;;;;6.45;5.28;;;13.20;83.50;;;;;;5080586;28;20035;-62
2022/05/01 05:32:13;;;;;;;5.90;5.13;;;13.20;83.50;;;;;;5082042;28;20380;-62
2022/05/01 05:34:39;;;;;;;5.82;5.30;;;13.20;83.50;;;;;;5057768;28;20036;-62
2022/05/01 05:37:04;;;;;;;5.80;5.20;;;13.20;83.50;;;;;;5066008;28;20059;-62
2022/05/01 05:39:30;;;;;;;5.43;4.93;;;13.20;83.50;;;;;;5041489;28;20021;-62
2022/05/01 05:41:55;;;;;;;5.78;5.20;;;13.20;83.60;;;;;;5075954;28;20024;-63
2022/05/01 05:44:21;;;;;;;5.93;5.32;;;13.20;83.60;;;;;;5042109;28;20028;-62
2022/05/01 05:46:46;;;;;;;5.65;5.13;;;13.20;83.50;;;;;;5073057;28;20048;-62
2022/05/01 05:49:12;;;;;;;5.38;4.88;;;13.20;83.50;;;;;;5074884;28;20028;-62
2022/05/01 05:51:37;;;;;;;5.40;4.90;;;13.20;83.60;;;;;;5073526;28;20484;-62
2022/05/01 05:54:03;;;;;;;7.35;5.22;;;13.20;83.60;;;;;;5062123;28;20046;-63
2022/05/01 05:56:28;;;;;;;5.55;5.00;;;13.20;83.60;;;;;;5068848;28;20099;-63
2022/05/01 05:58:56;;;;;;;6.05;5.45;;;13.20;83.60;;;;;;5086298;28;20032;-63
2022/05/01 06:01:21;;;;;;;5.85;5.22;;;13.20;83.60;;;;;;5088174;28;20016;-62
2022/05/01 06:03:47;;;;;;;5.53;5.03;;;13.20;83.60;;;;;;5086889;28;20503;-62
2022/05/01 06:06:14;;;;;;;5.82;5.28;;;13.20;83.60;;;;;;5089572;28;20149;-63
2022/05/01 06:08:39;;;;;;;9.23;5.45;;;13.20;83.60;;;;;;5069468;28;20118;-63
2022/05/01 06:11:05;;;;;;;23.17;6.53;;;13.20;83.60;;;;;;5088158;28;20158;-62
2022/05/01 06:13:31;;;;;;;45.30;8.88;;;13.20;83.50;;;;;;5054411;28;20384;-62
2022/05/01 06:15:57;;;;;;;25.55;7.05;;;13.20;83.40;;;;;;5070378;28;20032;-63
2022/05/01 06:18:22;;;;;;;29.75;7.15;;;13.30;83.40;;;;;;5086249;28;20032;-61
2022/05/01 06:20:49;;;;;;;44.58;7.60;;;13.20;83.40;;;;;;5072164;28;20032;-62
2022/05/01 06:23:15;;;;;;;30.77;7.32;;;13.20;83.30;;;;;;5066646;28;20404;-63
2022/05/01 06:25:43;;;;;;;38.50;7.93;;;13.30;83.30;;;;;;5087227;28;20051;-63
2022/05/01 06:28:09;;;;;;;23.48;6.45;;;13.30;83.30;;;;;;5069497;28;20360;-61
2022/05/01 06:30:37;;;;;;;40.22;7.30;;;13.30;83.20;;;;;;5071891;28;20036;-63
2022/05/01 06:33:03;;;;;;;29.98;7.53;;;13.30;83.10;;;;;;5067358;28;20127;-63
2022/05/01 06:35:31;;;;;;;47.72;7.55;;;13.30;83.10;;;;;;5058661;28;20103;-62
2022/05/01 06:37:57;;;;;;;30.63;7.07;;;13.30;83.10;;;;;;5082753;28;20017;-62
2022/05/01 06:40:23;;;;;;;35.75;6.57;;;13.30;82.90;;;;;;5067858;28;20056;-63
2022/05/01 06:42:48;;;;;;;33.72;7.70;;;13.40;83.70;;;;;;5085535;28;20056;-63
2022/05/01 06:45:14;;;;;;;30.08;6.45;;;13.40;83.10;;;;;;5052611;28;20057;-62
2022/05/01 06:47:39;;;;;;;29.20;7.07;;;13.30;83.00;;;;;;5068037;28;20042;-63
2022/05/01 06:50:05;;;;;;;34.35;7.80;;;13.30;83.20;;;;;;5087898;28;20111;-62
2022/05/01 06:52:31;;;;;;;20.27;5.75;;;13.40;83.30;;;;;;5082113;28;20124;-62
2022/05/01 06:54:56;;;;;;;29.60;7.18;;;13.40;83.10;;;;;;5058986;28;20040;-63
2022/05/01 06:57:22;;;;;;;23.65;5.90;;;13.40;83.00;;;;;;5064657;28;20032;-63
2022/05/01 06:59:48;;;;;;;18.40;6.35;;;13.40;82.90;;;;;;5074878;28;20024;-62
2022/05/01 07:02:14;;;;;;;29.30;6.45;;;13.40;83.00;;;;;;5046952;28;20045;-62
2022/05/01 07:04:39;;;;;;;18.52;5.85;;;13.40;82.90;;;;;;5076855;28;20040;-63
2022/05/01 07:07:05;;;;;;;23.20;6.70;;;13.40;82.90;;;;;;5059584;28;20420;-63
2022/05/01 07:09:30;;;;;;;13.25;5.55;;;13.40;82.90;;;;;;5086701;28;20040;-63
2022/05/01 07:11:57;;;;;;;23.42;6.15;;;13.40;82.70;;;;;;5077487;28;20055;-63
2022/05/01 07:14:23;;;;;;;29.67;6.40;;;13.40;82.60;;;;;;5082010;28;20035;-63
2022/05/01 07:16:48;;;;;;;15.27;5.25;;;13.40;82.60;;;;;;5076410;28;20028;-63
2022/05/01 07:19:14;;;;;;;15.52;5.93;;;13.40;82.70;;;;;;5084438;28;20027;-63
2022/05/01 07:21:40;;;;;;;22.95;5.80;;;13.40;82.70;;;;;;5052419;28;20130;-62
2022/05/01 07:24:06;;;;;;;24.17;5.88;;;13.50;82.70;;;;;;5073531;28;20032;-63
2022/05/01 07:26:33;;;;;;;27.30;5.57;;;13.50;82.80;;;;;;5044727;28;20040;-62
2022/05/01 07:29:02;;;;;;;24.42;6.10;;;13.50;82.80;;;;;;5076231;28;20024;-64
2022/05/01 07:31:28;;;;;;;45.53;7.47;;;13.50;82.70;;;;;;5066360;28;20024;-62
2022/05/01 07:33:53;;;;;;;32.35;7.25;;;13.50;82.80;;;;;;5059750;28;20051;-62
2022/05/01 07:36:19;;;;;;;39.75;7.53;;;13.50;82.90;;;;;;5078876;28;20058;-63
2022/05/01 07:38:45;;;;;;;28.30;7.03;;;13.50;82.90;;;;;;5078700;28;20016;-63
2022/05/01 07:41:11;;;;;;;48.03;7.60;;;13.60;82.90;;;;;;5054296;28;20481;-62
2022/05/01 07:43:38;;;;;;;49.40;7.78;;;13.50;82.90;;;;;;5065368;28;20040;-62
2022/05/01 07:46:04;;;;;;;29.48;7.13;;;13.60;82.80;;;;;;5056446;28;20038;-62
2022/05/01 07:48:29;;;;;;;32.55;6.88;;;13.60;82.50;;;;;;5082546;28;20289;-64
2022/05/01 07:50:55;;;;;;;24.23;6.75;;;13.60;82.30;;;;;;5069007;28;20028;-62
2022/05/01 07:53:20;;;;;;;26.77;7.00;;;13.60;82.40;;;;;;5083050;28;20039;-62
2022/05/01 07:55:46;;;;;;;27.63;7.38;;;13.70;82.60;;;;;;5070514;28;20024;-62
2022/05/01 07:58:11;;;;;;;34.70;7.85;;;13.70;82.60;;;;;;5084506;28;20091;-62
2022/05/01 08:00:37;;;;;;;26.70;6.97;;;13.70;82.60;;;;;;5072060;28;20457;-61
2022/05/01 08:05:46;;;;;;;32.88;8.45;;;13.70;82.40;;;;;;5069331;28;20034;-63
2022/05/01 08:08:12;;;;;;;36.40;8.57;;;13.80;82.20;;;;;;5088118;28;20531;-64
2022/05/01 08:10:37;;;;;;;31.92;8.52;;;13.80;82.40;;;;;;5071897;28;20044;-62
2022/05/01 08:13:03;;;;;;;26.48;9.45;;;13.80;82.40;;;;;;5088500;28;20024;-62
2022/05/01 08:15:28;;;;;;;27.50;8.88;;;13.80;82.30;;;;;;5073305;28;20115;-62
2022/05/01 08:21:04;;;;;;;21.80;8.77;;;13.90;82.30;;;;;;5069884;28;20371;-63
2022/05/01 08:23:24;;;;;;;21.85;7.53;;;13.90;82.20;;;;;;5074197;28;20034;-62
2022/05/01 08:25:49;;;;;;;25.10;7.75;;;13.90;82.10;;;;;;5087730;28;20379;-62
2022/05/01 08:28:15;;;;;;;21.70;7.30;;;14.00;82.10;;;;;;5075384;28;20121;-63
2022/05/01 08:30:40;;;;;;;28.90;7.93;;;14.00;82.80;;;;;;5087729;28;20093;-63
2022/05/01 08:33:06;;;;;;;18.55;7.28;;;14.00;81.90;;;;;;5089168;28;20089;-63
2022/05/01 08:35:31;;;;;;;22.65;7.18;;;14.00;81.80;;;;;;5075643;28;20100;-64
2022/05/01 08:37:57;;;;;;;24.90;7.28;;;14.00;81.60;;;;;;5058375;28;20523;-62
2022/05/01 08:40:22;;;;;;;19.63;7.05;;;14.00;81.60;;;;;;5085780;28;20489;-63
2022/05/01 08:42:48;;;;;;;21.25;7.00;;;14.00;81.60;;;;;;5086245;28;20510;-63
2022/05/01 08:45:14;;;;;;;20.73;7.28;;;14.00;81.40;;;;;;5054182;28;20128;-63
2022/05/01 08:47:53;;;;;;;19.77;6.97;;;14.10;81.30;;;;;;5072913;28;20016;-63
2022/05/01 08:50:18;;;;;;;29.08;8.18;;;14.10;81.20;;;;;;5070897;28;20047;-62
2022/05/01 08:52:44;;;;;;;18.40;7.57;;;14.20;81.10;;;;;;5040301;28;20145;-62
2022/05/01 08:55:10;;;;;;;24.98;7.63;;;14.20;81.10;;;;;;5050215;28;20040;-64
2022/05/01 08:57:35;;;;;;;20.55;7.60;;;14.20;81.10;;;;;;5084260;28;20361;-61
2022/05/01 09:00:01;;;;;;;19.88;7.72;;;14.20;81.00;;;;;;5067721;28;20494;-62
2022/05/01 09:02:27;;;;;;;17.15;7.95;;;14.30;81.00;;;;;;5088060;28;20071;-62
2022/05/01 09:04:52;;;;;;;18.05;8.23;;;14.30;81.00;;;;;;5066764;28;20037;-63
2022/05/01 09:07:18;;;;;;;13.10;7.28;;;14.30;81.30;;;;;;5054418;28;20036;-62
2022/05/01 09:09:43;;;;;;;13.35;6.88;;;14.30;81.10;;;;;;5073027;28;20499;-63
2022/05/01 09:14:53;;;;;;;13.13;6.93;;;14.40;81.20;;;;;;5064926;28;20054;-63
2022/05/01 09:17:23;;;;;;;17.52;7.07;;;14.40;81.00;;;;;;5070584;28;20031;-62
2022/05/01 09:19:50;;;;;;;13.68;7.47;;;14.50;81.10;;;;;;5067152;28;20038;-62
2022/05/01 09:22:16;;;;;;;20.40;7.28;;;14.50;80.90;;;;;;5086484;28;20020;-62
2022/05/01 09:24:42;;;;;;;13.40;7.35;;;14.50;80.80;;;;;;5056698;28;20142;-63
2022/05/01 09:27:23;;;;;;;17.10;8.45;;;14.50;80.70;;;;;;5052498;28;20119;-63
2022/05/01 09:29:49;;;;;;;22.77;10.10;;;14.60;81.00;;;;;;5088904;28;20081;-63
2022/05/01 09:32:14;;;;;;;18.55;11.43;;;14.60;80.90;;;;;;5058337;28;20106;-62
2022/05/01 09:34:43;;;;;;;14.02;8.70;;;14.60;80.90;;;;;;5057578;28;20166;-62
2022/05/01 09:37:18;;;;;;;17.85;8.63;;;14.60;81.00;;;;;;5058764;28;20047;-62
2022/05/01 09:39:47;;;;;;;18.52;8.65;;;14.60;81.20;;;;;;5070076;28;20020;-62
2022/05/01 09:42:14;;;;;;;15.63;8.27;;;14.70;81.40;;;;;;5055284;28;20071;-61
2022/05/01 09:44:40;;;;;;;20.23;8.68;;;14.70;81.90;;;;;;5075984;28;20020;-63
2022/05/01 09:47:07;;;;;;;20.48;8.30;;;14.70;81.80;;;;;;5076336;28;20031;-62
2022/05/01 09:49:49;;;;;;;22.60;8.10;;;14.70;81.80;;;;;;5074230;28;20023;-62
2022/05/01 09:52:15;;;;;;;22.38;9.20;;;14.70;81.70;;;;;;5073786;28;20173;-62
2022/05/01 09:54:41;;;;;;;14.63;8.40;;;14.70;82.20;;;;;;5057499;28;20535;-63
2022/05/01 09:57:07;;;;;;;23.25;8.40;;;14.70;82.70;;;;;;5057545;28;20440;-63
2022/05/01 09:59:45;;;;;;;20.92;8.35;;;14.80;82.60;;;;;;5057167;28;20078;-62
2022/05/01 10:02:10;;;;;;;22.48;7.82;;;14.80;82.10;;;;;;5073184;28;20032;-63
2022/05/01 10:04:37;;;;;;;15.70;7.63;;;14.80;82.00;;;;;;5084943;28;20048;-63
2022/05/01 10:07:03;;;;;;;21.20;8.07;;;14.80;82.00;;;;;;5088181;28;20420;-63
2022/05/01 10:09:34;;;;;;;13.70;8.10;;;14.80;82.40;;;;;;5071869;28;20471;-63
2022/05/01 10:12:03;;;;;;;14.00;8.45;;;14.80;82.90;;;;;;5087186;28;20035;-63
2022/05/01 10:14:29;;;;;;;25.17;8.77;;;14.80;83.40;;;;;;5075199;28;20127;-63
2022/05/01 10:16:55;;;;;;;16.35;7.82;;;14.90;83.80;;;;;;5076214;28;20123;-63
2022/05/01 10:19:23;;;;;;;18.00;8.10;;;14.90;83.50;;;;;;5061800;28;20020;-63
2022/05/01 10:21:50;;;;;;;17.38;7.90;;;14.90;82.90;;;;;;5087943;28;20104;-62
2022/05/01 10:24:16;;;;;;;20.25;7.57;;;14.90;83.00;;;;;;5076733;28;20057;-62
2022/05/01 10:26:52;;;;;;;17.77;7.25;;;15.00;83.20;;;;;;5070449;28;20028;-63
2022/05/01 10:32:20;;;;;;;13.70;8.20;;;15.00;82.90;;;;;;5073167;28;20045;-62
2022/05/01 10:32:49;;;;;;;13.88;7.88;;;15.10;83.50;;;;;;5079392;28;20032;-62
2022/05/01 10:35:28;;;;;;;16.70;7.57;;;15.10;82.90;;;;;;5056831;28;20106;-62
2022/05/01 10:38:02;;;;;;;11.77;7.60;;;15.10;83.30;;;;;;5078305;28;20379;-62
2022/05/01 10:40:51;;;;;;;12.30;7.75;;;15.10;83.00;;;;;;5075402;28;20476;-63
2022/05/01 10:43:31;;;;;;;15.98;7.90;;;15.20;82.90;;;;;;5080123;28;20031;-62
2022/05/01 10:46:00;;;;;;;14.50;7.93;;;15.20;83.00;;;;;;5087588;28;20379;-63
2022/05/01 10:48:33;;;;;;;18.95;8.25;;;15.20;83.10;;;;;;5073421;28;20050;-62
2022/05/01 10:51:38;;;;;;;18.98;7.88;;;15.30;83.20;;;;;;5089966;28;20017;-62
2022/05/01 10:54:10;;;;;;;22.63;8.65;;;15.30;83.30;;;;;;5085755;28;20486;-63
2022/05/01 10:56:36;;;;;;;13.13;7.70;;;15.30;83.20;;;;;;5076412;28;20020;-63
2022/05/01 10:59:30;;;;;;;17.60;8.07;;;15.40;82.90;;;;;;5070140;28;20035;-62
2022/05/01 11:01:58;;;;;;;16.27;7.93;;;15.40;82.90;;;;;;5072939;28;20043;-62
2022/05/01 11:04:23;;;;;;;15.82;8.55;;;15.40;83.50;;;;;;5055907;28;20067;-63
2022/05/01 11:06:55;;;;;;;18.73;9.00;;;15.50;82.90;;;;;;5091666;28;20078;-62
2022/05/01 11:09:25;;;;;;;14.13;7.50;;;15.60;83.30;;;;;;5074226;28;20154;-62
2022/05/01 11:11:57;;;;;;;16.05;7.72;;;15.60;82.80;;;;;;5056909;28;20025;-62
2022/05/01 11:14:38;;;;;;;14.52;7.32;;;15.60;82.90;;;;;;5077334;28;20340;-63
2022/05/01 11:17:04;;;;;;;16.67;7.43;;;15.70;82.80;;;;;;5072531;28;20027;-62
2022/05/01 11:19:31;;;;;;;21.60;7.22;;;15.80;82.50;;;;;;5076870;28;20036;-63
2022/05/01 11:21:57;;;;;;;15.88;7.32;;;15.80;82.40;;;;;;5058785;28;20027;-62
2022/05/01 11:24:45;;;;;;;14.55;7.35;;;15.90;82.10;;;;;;5091536;28;20024;-62
2022/05/01 11:27:10;;;;;;;17.75;6.60;;;16.00;81.90;;;;;;5074191;28;20503;-62
2022/05/01 11:29:36;;;;;;;12.85;6.53;;;16.00;81.50;;;;;;5091283;28;20071;-63
2022/05/01 11:32:18;;;;;;;14.45;6.25;;;16.00;81.50;;;;;;5057736;28;20463;-62
2022/05/01 11:34:54;;;;;;;18.58;7.30;;;16.10;81.50;;;;;;5073884;28;20506;-62
2022/05/01 11:37:21;;;;;;;14.80;7.00;;;16.20;81.90;;;;;;5072749;28;20064;-62
2022/05/01 11:39:47;;;;;;;10.65;6.40;;;16.20;81.80;;;;;;5072129;28;20063;-63
2022/05/01 11:42:29;;;;;;;17.25;6.13;;;16.30;81.50;;;;;;5091191;28;20059;-62
2022/05/01 11:44:58;;;;;;;15.77;6.18;;;16.40;81.30;;;;;;5087923;28;20074;-62
2022/05/01 11:47:25;;;;;;;10.48;6.15;;;16.50;81.10;;;;;;5073861;28;20042;-62
2022/05/01 11:49:50;;;;;;;9.13;6.45;;;16.50;80.80;;;;;;5085775;28;20044;-62
2022/05/01 11:52:16;;;;;;;11.88;6.20;;;16.60;80.70;;;;;;5090738;28;20131;-62
2022/05/01 11:54:58;;;;;;;8.23;5.70;;;16.70;80.40;;;;;;5055338;28;20082;-63
2022/05/01 12:03:03;;;;;;;11.45;6.00;;;16.80;79.70;;;;;;5090033;28;20145;-62
2022/05/01 12:05:30;;;;;;;11.88;6.43;;;16.90;79.50;;;;;;5054323;28;20135;-62
2022/05/01 12:07:56;;;;;;;16.30;6.70;;;17.00;79.20;;;;;;5073860;28;20055;-62
2022/05/01 12:10:22;;;;;;;15.73;6.35;;;17.10;79.00;;;;;;5071452;28;20441;-63
2022/05/01 12:12:48;;;;;;;11.10;6.22;;;17.10;78.30;;;;;;5058708;28;20398;-62
2022/05/01 12:15:13;;;;;;;11.40;5.80;;;17.20;77.90;;;;;;5086446;28;20043;-62
2022/05/01 12:17:40;;;;;;;13.43;6.00;;;17.30;77.40;;;;;;5076483;28;20066;-63
2022/05/01 12:20:08;;;;;;;14.27;6.00;;;17.40;77.10;;;;;;5073184;28;20021;-63
2022/05/01 12:22:40;;;;;;;9.43;5.50;;;17.40;76.60;;;;;;5086220;28;20036;-62
2022/05/01 12:25:07;;;;;;;8.43;5.75;;;17.50;76.00;;;;;;5088002;28;20042;-62
2022/05/01 12:27:33;;;;;;;9.50;5.30;;;17.50;75.40;;;;;;5086662;28;20391;-62
2022/05/01 12:30:04;;;;;;;8.95;5.57;;;17.60;75.20;;;;;;5072291;28;20035;-63
2022/05/01 12:32:31;;;;;;;10.27;5.25;;;17.70;74.80;;;;;;5085921;28;20116;-62
2022/05/01 12:34:58;;;;;;;12.68;5.18;;;17.70;74.40;;;;;;5072001;28;20107;-63
2022/05/01 12:37:29;;;;;;;12.38;5.30;;;17.80;74.20;;;;;;5055199;28;20436;-62
2022/05/01 12:39:59;;;;;;;12.02;5.13;;;17.90;73.60;;;;;;5083212;28;20065;-63
2022/05/01 12:45:18;;;;;;;7.85;5.75;;;18.00;73.10;;;;;;5077448;28;20126;-63
2022/05/01 12:47:51;;;;;;;7.43;4.93;;;18.10;72.60;;;;;;5073106;28;20419;-62
2022/05/01 12:50:21;;;;;;;11.95;4.78;;;18.20;72.30;;;;;;5056610;28;20032;-62
2022/05/01 12:52:48;;;;;;;6.10;4.68;;;18.30;71.90;;;;;;5083809;28;20135;-63
2022/05/01 12:55:16;;;;;;;5.90;4.10;;;18.30;71.40;;;;;;5078073;28;20040;-63
2022/05/01 12:57:51;;;;;;;12.30;4.82;;;18.40;71.00;;;;;;5054755;28;20028;-63
2022/05/01 13:00:42;;;;;;;10.20;5.18;;;18.40;70.60;;;;;;5076340;28;20034;-63
2022/05/01 13:03:21;;;;;;;7.38;4.60;;;18.50;70.40;;;;;;5076397;28;20040;-62
2022/05/01 13:06:03;;;;;;;10.00;4.53;;;18.60;69.90;;;;;;5071659;28;20127;-62
2022/05/01 13:08:30;;;;;;;7.97;4.35;;;18.70;69.70;;;;;;5084482;28;20024;-63
2022/05/01 13:11:11;;;;;;;9.73;4.75;;;18.70;69.00;;;;;;5059744;28;20048;-63
2022/05/01 13:14:04;;;;;;;11.00;4.00;;;18.80;69.10;;;;;;5082095;28;20025;-63